Time;durP1;ratioP1;P1;durP2;ratioP2;P2;SDS_P1;SDS_P2;PMS_P1;PMS_P2;Temp;Humidity;BMP_temperature;BMP_pressure;BME280_temperature;BME280_humidity;BME280_pressure;Samples;Min_cycle;Max_cycle;Signal;HPM_P1;HPM_P2
2023/03/31 00:01:24;;;;;;;6.30;4.32;;;;;;;1.00;74.92;98662.25;7340788;19;20018;-62
2023/03/31 00:03:49;;;;;;;11.15;4.95;;;;;;;0.99;74.83;98657.09;7339658;19;20019;-62
2023/03/31 00:06:18;;;;;;;6.03;4.15;;;;;;;0.97;74.79;98654.53;7345739;19;20019;-63
2023/03/31 00:08:43;;;;;;;9.15;5.70;;;;;;;0.91;75.01;98649.56;7342442;19;20086;-63
2023/03/31 00:11:10;;;;;;;6.50;5.28;;;;;;;0.82;74.90;98654.41;7342290;19;20484;-63
2023/03/31 00:13:35;;;;;;;7.97;4.00;;;;;;;0.72;74.76;98660.09;7342443;19;20015;-64
2023/03/31 00:16:03;;;;;;;6.15;4.18;;;;;;;0.64;74.87;98658.75;7345252;19;20472;-63
2023/03/31 00:18:28;;;;;;;6.60;4.53;;;;;;;0.55;75.03;98661.81;7345667;19;20018;-63
2023/03/31 00:20:56;;;;;;;8.77;4.50;;;;;;;0.54;75.30;98654.88;7343123;19;20018;-64
2023/03/31 00:23:26;;;;;;;8.40;4.43;;;;;;;0.52;75.18;98664.59;7345009;19;20026;-64
2023/03/31 00:25:51;;;;;;;6.63;4.03;;;;;;;0.51;75.19;98657.63;7343466;19;20066;-61
2023/03/31 00:28:15;;;;;;;6.97;4.78;;;;;;;0.49;75.33;98662.09;7342870;19;20021;-63
2023/03/31 00:30:40;;;;;;;8.65;5.10;;;;;;;0.46;75.29;98656.97;7339422;19;20014;-63
2023/03/31 00:33:05;;;;;;;5.00;3.60;;;;;;;0.43;75.35;98662.38;7343488;19;20387;-63
2023/03/31 00:35:38;;;;;;;8.68;4.47;;;;;;;0.43;75.58;98655.38;7344268;19;20046;-63
2023/03/31 00:38:02;;;;;;;8.80;4.10;;;;;;;0.44;75.47;98659.72;7342921;19;20021;-65
2023/03/31 00:40:27;;;;;;;7.07;3.92;;;;;;;0.49;75.45;98654.22;7346824;19;20029;-64
2023/03/31 00:42:52;;;;;;;5.95;4.55;;;;;;;0.55;75.53;98646.94;7344787;19;20015;-63
2023/03/31 00:45:26;;;;;;;4.43;3.45;;;;;;;0.62;75.50;98648.34;7343538;19;20042;-64
2023/03/31 00:48:03;;;;;;;6.00;4.47;;;;;;;0.70;75.34;98647.97;7340723;19;20017;-65
2023/03/31 00:50:34;;;;;;;6.63;3.90;;;;;;;0.61;75.37;98640.53;7340461;19;20010;-65
2023/03/31 00:53:07;;;;;;;5.43;3.93;;;;;;;0.62;75.47;98644.88;7345628;19;20010;-71
2023/03/31 00:55:38;;;;;;;6.85;3.97;;;;;;;0.59;75.20;98642.38;7344369;19;20327;-65
2023/03/31 00:58:06;;;;;;;6.88;4.30;;;;;;;0.58;75.10;98651.16;7345382;19;20026;-66
2023/03/31 01:00:31;;;;;;;9.82;4.65;;;;;;;0.56;75.19;98646.03;7344376;19;20045;-63
2023/03/31 01:03:01;;;;;;;5.90;4.28;;;;;;;0.58;75.26;98643.31;7343884;19;20137;-69
2023/03/31 01:05:31;;;;;;;6.45;4.20;;;;;;;0.58;75.38;98643.31;7346532;19;20025;-66
2023/03/31 01:07:58;;;;;;;5.93;4.72;;;;;;;0.59;75.32;98637.13;7340988;19;20030;-65
2023/03/31 01:10:22;;;;;;;7.38;5.00;;;;;;;0.59;75.34;98630.13;7340322;19;20022;-65
2023/03/31 01:12:51;;;;;;;6.80;4.47;;;;;;;0.58;75.25;98635.44;7338305;19;20018;-65
2023/03/31 01:15:18;;;;;;;5.95;4.45;;;;;;;0.66;75.13;98628.94;7340899;19;20015;-68
2023/03/31 01:17:43;;;;;;;6.43;4.28;;;;;;;0.67;75.38;98616.66;7338161;19;20409;-64
2023/03/31 01:20:33;;;;;;;7.65;4.60;;;;;;;0.77;75.42;98606.56;7338033;19;20019;-62
2023/03/31 01:23:00;;;;;;;5.97;4.30;;;;;;;0.70;75.32;98600.75;7337332;19;20441;-68
2023/03/31 01:25:41;;;;;;;5.63;4.00;;;;;;;0.67;75.20;98595.69;7342287;19;20030;-69
2023/03/31 01:28:27;;;;;;;9.60;6.55;;;;;;;0.61;75.10;98602.06;7338893;19;20127;-69
2023/03/31 01:31:11;;;;;;;5.55;4.10;;;;;;;0.54;75.26;98600.66;7339280;19;20010;-72
2023/03/31 01:33:50;;;;;;;6.60;4.53;;;;;;;0.43;75.42;98609.97;7339066;19;20490;-72
2023/03/31 01:36:33;;;;;;;7.68;4.55;;;;;;;0.49;75.88;98593.91;7338825;19;20339;-70
2023/03/31 01:39:28;;;;;;;5.97;4.57;;;;;;;0.43;75.94;98602.09;7343184;19;20025;-77
2023/03/31 01:41:58;;;;;;;6.43;4.30;;;;;;;0.37;75.86;98608.47;7339775;19;20015;-64
2023/03/31 01:44:50;;;;;;;6.18;3.90;;;;;;;0.45;75.97;98602.88;7342630;19;20018;-65
2023/03/31 01:47:24;;;;;;;6.30;4.72;;;;;;;0.43;75.86;98595.06;7338112;19;20019;-65
2023/03/31 01:50:01;;;;;;;6.97;4.60;;;;;;;0.44;75.81;98591.53;7348119;19;20014;-65
2023/03/31 01:52:50;;;;;;;6.00;4.38;;;;;;;0.48;75.86;98598.31;7344473;19;20029;-65
2023/03/31 01:55:24;;;;;;;8.77;5.18;;;;;;;0.42;75.75;98588.13;7344000;19;20038;-69
2023/03/31 01:57:58;;;;;;;9.57;4.80;;;;;;;0.41;75.67;98586.44;7347612;19;20450;-68
2023/03/31 02:00:32;;;;;;;6.03;4.50;;;;;;;0.38;75.62;98588.34;7347588;19;20029;-68
2023/03/31 02:03:13;;;;;;;8.27;5.00;;;;;;;0.35;75.72;98589.31;7350198;19;20010;-68
2023/03/31 02:05:45;;;;;;;7.82;5.32;;;;;;;0.25;75.65;98590.69;7348549;19;20047;-69
2023/03/31 02:08:19;;;;;;;6.90;4.57;;;;;;;0.17;75.86;98585.81;7348918;19;20444;-67
2023/03/31 02:10:45;;;;;;;7.57;4.68;;;;;;;0.12;76.07;98593.00;7345545;19;20533;-69
2023/03/31 02:13:13;;;;;;;7.25;4.60;;;;;;;0.06;75.99;98589.84;7343829;19;20010;-70
2023/03/31 02:15:45;;;;;;;5.68;4.43;;;;;;;-0.04;76.35;98585.03;7345833;19;20052;-63
2023/03/31 02:18:16;;;;;;;7.40;5.05;;;;;;;-0.10;76.42;98585.28;7343197;19;20019;-66
2023/03/31 02:20:41;;;;;;;6.22;4.60;;;;;;;-0.16;76.54;98595.19;7343171;19;20010;-66
2023/03/31 02:23:09;;;;;;;6.80;4.63;;;;;;;-0.20;76.84;98586.63;7341932;19;20015;-65
2023/03/31 02:25:40;;;;;;;7.32;5.05;;;;;;;-0.18;76.80;98600.50;7341965;19;20386;-64
2023/03/31 02:28:09;;;;;;;7.03;4.80;;;;;;;-0.15;76.93;98597.75;7343408;19;20014;-64
2023/03/31 02:30:49;;;;;;;6.25;4.68;;;;;;;-0.16;76.84;98596.06;7343415;19;20022;-63
2023/03/31 02:33:15;;;;;;;10.27;4.82;;;;;;;-0.20;76.76;98598.88;7345471;19;20029;-71
2023/03/31 02:35:41;;;;;;;5.65;3.97;;;;;;;-0.24;76.80;98586.84;7347938;19;20014;-70
2023/03/31 02:38:07;;;;;;;7.40;4.28;;;;;;;-0.25;77.01;98593.00;7344269;19;20021;-69
2023/03/31 02:40:33;;;;;;;5.47;4.13;;;;;;;-0.32;77.11;98600.25;7343428;19;20348;-69
2023/03/31 02:42:59;;;;;;;13.10;5.50;;;;;;;-0.39;77.17;98589.22;7343662;19;20344;-70
2023/03/31 02:45:46;;;;;;;6.22;4.25;;;;;;;-0.37;77.30;98590.00;7345628;19;20014;-71
2023/03/31 02:48:16;;;;;;;9.88;3.97;;;;;;;-0.50;77.30;98585.38;7349593;19;20363;-76
2023/03/31 02:51:08;;;;;;;5.50;3.45;;;;;;;-0.48;77.60;98586.16;7348925;19;20015;-72
2023/03/31 02:53:43;;;;;;;7.32;4.80;;;;;;;-0.57;77.80;98589.19;7346654;19;20014;-75
2023/03/31 02:56:41;;;;;;;6.40;4.33;;;;;;;-0.58;77.86;98583.09;7350128;19;20002;-76
2023/03/31 02:59:28;;;;;;;10.43;4.60;;;;;;;-0.63;77.94;98592.06;7344392;19;20407;-69
2023/03/31 03:02:07;;;;;;;5.28;3.83;;;;;;;-0.74;77.85;98593.38;7342991;19;20330;-67
2023/03/31 03:04:50;;;;;;;6.30;4.22;;;;;;;-0.75;77.97;98593.44;7346162;19;20030;-65
2023/03/31 03:07:16;;;;;;;;;;;;;;;-0.66;78.06;98584.31;7350531;19;20074;-66
2023/03/31 03:09:44;;;;;;;;;;;;;;;-0.66;78.11;98581.72;7352519;19;19919;-73
2023/03/31 03:12:37;;;;;;;6.07;3.45;;;;;;;-0.75;78.30;98583.81;7349794;19;19922;-67
2023/03/31 03:15:09;;;;;;;5.30;4.32;;;;;;;-0.83;78.26;98598.16;7353707;19;20020;-66
2023/03/31 03:17:46;;;;;;;8.43;4.80;;;;;;;-0.81;78.49;98604.16;7351869;19;20014;-70
2023/03/31 03:20:14;;;;;;;6.18;4.82;;;;;;;-0.82;78.81;98602.47;7353640;19;20011;-72
2023/03/31 03:22:40;;;;;;;7.78;4.90;;;;;;;-0.79;78.81;98594.50;7351426;19;20074;-66
2023/03/31 03:25:06;;;;;;;8.73;4.32;;;;;;;-0.75;78.85;98598.66;7350978;19;20018;-68
2023/03/31 03:27:31;;;;;;;6.25;4.32;;;;;;;-0.72;78.81;98582.84;7347449;19;20014;-67
2023/03/31 03:29:56;;;;;;;7.57;4.85;;;;;;;-0.72;78.77;98585.47;7344177;19;20014;-68
2023/03/31 03:32:21;;;;;;;6.75;4.28;;;;;;;-0.72;78.94;98564.53;7347136;19;20021;-70
2023/03/31 03:34:45;;;;;;;6.00;4.20;;;;;;;-0.69;78.98;98560.94;7343428;19;20029;-70
2023/03/31 03:37:10;;;;;;;9.48;4.40;;;;;;;-0.66;78.76;98560.78;7345532;19;20093;-69
2023/03/31 03:39:35;;;;;;;6.05;4.18;;;;;;;-0.68;78.85;98558.25;7345060;19;20023;-71
2023/03/31 03:42:00;;;;;;;9.73;4.55;;;;;;;-0.66;78.95;98547.69;7342569;19;20011;-70
2023/03/31 03:44:25;;;;;;;11.02;4.53;;;;;;;-0.65;78.99;98544.16;7342300;19;20017;-71
2023/03/31 03:46:50;;;;;;;8.50;5.70;;;;;;;-0.63;78.86;98551.03;7344664;19;20466;-70
2023/03/31 03:49:15;;;;;;;7.28;3.85;;;;;;;-0.63;78.75;98542.31;7344258;19;20469;-75
2023/03/31 03:51:40;;;;;;;6.05;3.95;;;;;;;-0.60;78.47;98545.66;7346440;19;20045;-76
2023/03/31 03:54:04;;;;;;;6.45;4.05;;;;;;;-0.59;78.38;98543.91;7346933;19;20054;-77
2023/03/31 03:56:29;;;;;;;8.73;4.20;;;;;;;-0.56;78.53;98548.97;7349364;19;20085;-76
2023/03/31 03:58:54;;;;;;;8.13;4.35;;;;;;;-0.54;78.33;98541.91;7346298;19;20014;-73
2023/03/31 04:01:22;;;;;;;9.48;3.88;;;;;;;-0.51;78.41;98541.78;7342370;19;20015;-73
2023/03/31 04:03:47;;;;;;;12.13;5.00;;;;;;;-0.54;78.63;98528.81;7342985;19;20018;-74
2023/03/31 04:06:11;;;;;;;8.82;4.32;;;;;;;-0.50;78.40;98528.63;7343078;19;20045;-75
2023/03/31 04:08:36;;;;;;;9.35;4.57;;;;;;;-0.50;78.46;98528.63;7344622;19;20074;-75
2023/03/31 04:11:01;;;;;;;8.48;5.00;;;;;;;-0.46;78.29;98524.13;7345932;19;20437;-76
2023/03/31 04:13:25;;;;;;;7.35;4.13;;;;;;;-0.44;78.23;98517.03;7347009;19;20027;-77
2023/03/31 04:15:50;;;;;;;5.72;3.83;;;;;;;-0.40;78.12;98521.22;7341726;19;20030;-76
2023/03/31 04:18:21;;;;;;;6.00;3.92;;;;;;;-0.41;77.87;98517.75;7342258;19;20014;-74
2023/03/31 04:20:53;;;;;;;7.47;3.97;;;;;;;-0.38;77.94;98516.75;7342749;19;20024;-73
2023/03/31 04:23:18;;;;;;;7.00;3.55;;;;;;;-0.38;77.64;98519.38;7344615;19;20031;-73
2023/03/31 04:25:45;;;;;;;6.60;4.80;;;;;;;-0.37;77.71;98518.47;7341844;19;20018;-75
2023/03/31 04:28:13;;;;;;;5.57;3.67;;;;;;;-0.37;77.55;98529.78;7340564;19;20274;-75
2023/03/31 04:30:38;;;;;;;8.23;4.05;;;;;;;-0.35;77.60;98518.41;7346868;19;20473;-75
2023/03/31 04:33:05;;;;;;;7.72;4.38;;;;;;;-0.24;77.66;98524.00;7349049;19;20363;-74
2023/03/31 04:35:48;;;;;;;5.22;3.97;;;;;;;-0.12;77.65;98507.72;7351819;19;20021;-75
2023/03/31 04:38:13;;;;;;;5.97;4.25;;;;;;;0.03;77.51;98501.75;7350559;19;20022;-75
2023/03/31 04:40:38;;;;;;;7.68;4.95;;;;;;;0.12;77.23;98503.91;7353449;19;20022;-75
2023/03/31 04:43:03;;;;;;;7.72;4.38;;;;;;;0.23;77.11;98504.25;7351568;19;20018;-74
2023/03/31 04:45:28;;;;;;;5.78;3.92;;;;;;;0.32;77.11;98495.97;7349443;19;20549;-75
2023/03/31 04:47:53;;;;;;;5.75;4.30;;;;;;;0.41;76.72;98491.19;7348029;19;20368;-75
2023/03/31 04:50:17;;;;;;;6.85;4.72;;;;;;;0.43;76.51;98484.13;7346512;19;20490;-74
2023/03/31 04:52:46;;;;;;;6.45;4.40;;;;;;;0.43;76.51;98484.97;7340847;19;20014;-74
2023/03/31 04:55:10;;;;;;;7.18;3.80;;;;;;;0.44;76.54;98475.31;7342635;19;20018;-74
2023/03/31 04:57:36;;;;;;;14.73;4.95;;;;;;;0.48;76.60;98480.31;7344167;19;20015;-72
2023/03/31 05:00:03;;;;;;;6.32;3.63;;;;;;;0.54;76.61;98476.56;7343239;19;20018;-72
2023/03/31 05:02:30;;;;;;;6.68;4.60;;;;;;;0.59;76.44;98483.25;7339261;19;20042;-71
2023/03/31 05:04:55;;;;;;;8.38;5.25;;;;;;;0.61;76.42;98491.91;7342222;19;20010;-72
2023/03/31 05:07:20;;;;;;;7.10;5.05;;;;;;;0.63;76.21;98502.31;7341073;19;20014;-74
2023/03/31 05:09:45;;;;;;;5.68;4.03;;;;;;;0.65;76.26;98490.00;7341219;19;20006;-72
2023/03/31 05:12:10;;;;;;;9.43;4.22;;;;;;;0.73;76.07;98482.59;7339704;19;20030;-71
2023/03/31 05:14:35;;;;;;;6.80;4.32;;;;;;;0.79;76.16;98487.50;7341515;19;20022;-70
2023/03/31 05:17:00;;;;;;;9.00;4.65;;;;;;;0.86;75.80;98493.31;7339985;19;20484;-72
2023/03/31 05:19:25;;;;;;;6.45;4.28;;;;;;;0.95;75.84;98488.44;7340455;19;20334;-73
2023/03/31 05:21:49;;;;;;;7.57;4.32;;;;;;;1.05;75.61;98491.44;7336767;19;20030;-74
2023/03/31 05:24:14;;;;;;;9.30;4.43;;;;;;;1.18;75.42;98483.78;7343570;19;20024;-72
2023/03/31 05:26:40;;;;;;;14.98;4.70;;;;;;;1.21;75.12;98478.38;7349556;19;20010;-72
2023/03/31 05:29:04;;;;;;;6.35;4.38;;;;;;;1.16;74.60;98488.25;7346184;19;20014;-71
2023/03/31 05:31:29;;;;;;;9.18;4.10;;;;;;;1.14;74.54;98493.59;7346922;19;20493;-72
2023/03/31 05:33:54;;;;;;;10.25;5.10;;;;;;;1.16;74.95;98489.09;7346438;19;20006;-77
2023/03/31 05:36:18;;;;;;;10.93;4.70;;;;;;;1.21;74.72;98488.88;7345895;19;20030;-73
2023/03/31 05:38:43;;;;;;;8.23;4.75;;;;;;;1.27;74.69;98488.53;7345531;19;20338;-73
2023/03/31 05:41:09;;;;;;;11.05;5.22;;;;;;;1.37;74.45;98495.00;7344131;19;20015;-73
2023/03/31 05:43:35;;;;;;;7.88;4.68;;;;;;;1.37;74.18;98485.34;7347485;19;20042;-75
2023/03/31 05:46:01;;;;;;;5.75;4.28;;;;;;;1.39;74.30;98482.66;7347980;19;20342;-73
2023/03/31 05:48:26;;;;;;;9.27;5.93;;;;;;;1.47;74.04;98477.00;7345079;19;20015;-73
2023/03/31 05:50:56;;;;;;;14.13;6.50;;;;;;;1.62;73.90;98473.53;7346267;19;20014;-74
2023/03/31 05:53:21;;;;;;;7.57;5.13;;;;;;;1.58;73.66;98462.34;7345200;19;20015;-74
2023/03/31 05:55:46;;;;;;;11.25;4.88;;;;;;;1.63;73.47;98476.09;7344524;19;20117;-75
2023/03/31 05:58:10;;;;;;;7.20;5.20;;;;;;;1.73;73.66;98460.69;7345545;19;20030;-77
2023/03/31 06:00:36;;;;;;;10.35;5.18;;;;;;;1.81;73.67;98463.72;7344643;19;20007;-77
2023/03/31 06:03:02;;;;;;;8.07;5.25;;;;;;;1.86;73.49;98445.94;7345273;19;20055;-76
2023/03/31 06:05:29;;;;;;;12.88;5.40;;;;;;;1.95;73.40;98457.72;7348128;19;20022;-76
2023/03/31 06:07:54;;;;;;;10.60;5.22;;;;;;;2.01;73.42;98463.50;7348414;19;20031;-77
2023/03/31 06:10:19;;;;;;;12.10;4.80;;;;;;;2.09;73.16;98468.31;7344846;19;20115;-74
2023/03/31 06:12:44;;;;;;;9.10;5.15;;;;;;;2.13;73.10;98452.28;7343484;19;20633;-74
2023/03/31 06:15:09;;;;;;;9.38;5.63;;;;;;;2.22;72.92;98453.56;7344039;19;20358;-73
2023/03/31 06:17:34;;;;;;;9.25;5.25;;;;;;;2.32;73.02;98459.97;7344920;19;20342;-73
2023/03/31 06:19:59;;;;;;;15.10;5.45;;;;;;;2.40;72.83;98455.13;7345767;19;20024;-74
2023/03/31 06:22:24;;;;;;;19.00;5.47;;;;;;;2.46;72.60;98449.53;7341787;19;20015;-74
2023/03/31 06:24:48;;;;;;;9.52;4.88;;;;;;;2.53;72.60;98458.75;7345994;19;20019;-74
2023/03/31 06:27:13;;;;;;;11.65;5.03;;;;;;;2.52;72.69;98451.78;7345777;19;20025;-74
2023/03/31 06:29:37;;;;;;;11.98;5.20;;;;;;;2.63;72.53;98455.56;7349134;19;20025;-74
2023/03/31 06:32:03;;;;;;;10.57;5.15;;;;;;;2.76;72.35;98453.94;7350501;19;20014;-75
2023/03/31 06:34:28;;;;;;;20.45;5.18;;;;;;;2.83;72.08;98460.50;7344416;19;20014;-72
2023/03/31 06:36:53;;;;;;;14.48;5.53;;;;;;;2.84;72.09;98462.22;7344813;19;20019;-74
2023/03/31 06:39:18;;;;;;;12.57;6.55;;;;;;;2.83;71.98;98450.81;7343536;19;20035;-75
2023/03/31 06:41:42;;;;;;;8.00;5.10;;;;;;;2.81;71.99;98458.00;7340986;19;20015;-73
2023/03/31 06:44:07;;;;;;;10.50;4.93;;;;;;;2.81;71.86;98454.50;7345019;19;20015;-75
2023/03/31 06:46:31;;;;;;;8.88;4.95;;;;;;;2.84;71.74;98449.03;7347832;19;20029;-74
2023/03/31 06:48:56;;;;;;;8.10;5.10;;;;;;;2.85;71.69;98438.44;7343467;19;20086;-74
2023/03/31 06:51:21;;;;;;;10.38;5.00;;;;;;;2.88;71.70;98445.31;7342680;19;20038;-73
2023/03/31 06:53:45;;;;;;;9.10;4.72;;;;;;;2.92;71.77;98441.56;7343549;19;20042;-74
2023/03/31 06:56:10;;;;;;;11.30;5.32;;;;;;;2.98;71.54;98449.09;7343687;19;20342;-74
2023/03/31 06:58:35;;;;;;;8.65;5.53;;;;;;;3.02;71.75;98445.34;7343653;19;20007;-75
2023/03/31 07:01:02;;;;;;;10.55;5.07;;;;;;;3.02;71.37;98455.03;7342275;19;20022;-74
2023/03/31 07:03:28;;;;;;;9.52;5.00;;;;;;;3.03;71.04;98456.72;7344964;19;20045;-75
2023/03/31 07:05:55;;;;;;;11.90;5.47;;;;;;;3.10;70.97;98464.16;7344914;19;20022;-74
2023/03/31 07:08:21;;;;;;;10.73;5.20;;;;;;;3.12;71.05;98450.91;7348035;19;20066;-77
2023/03/31 07:10:47;;;;;;;7.78;5.25;;;;;;;3.10;71.17;98443.09;7342663;19;20330;-73
2023/03/31 07:13:13;;;;;;;18.52;6.03;;;;;;;3.08;70.97;98438.84;7342203;19;20018;-72
2023/03/31 07:15:40;;;;;;;9.85;4.65;;;;;;;3.09;70.95;98436.13;7344401;19;20018;-73
2023/03/31 07:18:05;;;;;;;11.32;5.63;;;;;;;3.14;70.95;98435.84;7345459;19;20010;-75
2023/03/31 07:20:31;;;;;;;10.70;4.93;;;;;;;3.12;70.81;98432.47;7347207;19;20010;-72
2023/03/31 07:22:56;;;;;;;13.32;6.15;;;;;;;3.20;70.68;98438.09;7348092;19;20018;-72
2023/03/31 07:25:21;;;;;;;11.00;5.57;;;;;;;3.23;70.51;98435.28;7345064;19;20450;-72
2023/03/31 07:27:45;;;;;;;10.15;5.43;;;;;;;3.27;70.38;98437.63;7341022;19;20014;-74
2023/03/31 07:30:18;;;;;;;16.92;5.70;;;;;;;3.39;70.21;98445.72;7342029;19;20502;-73
2023/03/31 07:32:46;;;;;;;11.82;5.97;;;;;;;3.47;70.18;98425.88;7342727;19;20030;-72
2023/03/31 07:35:13;;;;;;;10.68;5.88;;;;;;;3.52;69.94;98429.06;7343978;19;20022;-72
2023/03/31 07:37:42;;;;;;;12.05;5.30;;;;;;;3.56;69.98;98427.94;7345313;19;20006;-71
2023/03/31 07:40:10;;;;;;;10.45;5.60;;;;;;;3.55;69.83;98431.50;7345623;19;20021;-73
2023/03/31 07:42:35;;;;;;;9.40;6.28;;;;;;;3.53;69.90;98432.53;7343561;19;20019;-73
2023/03/31 07:45:01;;;;;;;9.73;5.72;;;;;;;3.53;69.82;98430.75;7346376;19;20022;-72
2023/03/31 07:47:27;;;;;;;8.38;4.97;;;;;;;3.53;69.80;98437.81;7342920;19;20328;-73
2023/03/31 07:49:51;;;;;;;10.88;5.93;;;;;;;3.48;69.85;98427.56;7343864;19;20007;-71
2023/03/31 07:52:18;;;;;;;15.27;6.80;;;;;;;3.46;70.12;98423.34;7340749;19;20025;-74
2023/03/31 07:54:43;;;;;;;9.25;5.70;;;;;;;3.45;70.12;98434.81;7340942;19;20022;-72
2023/03/31 07:57:08;;;;;;;9.18;5.55;;;;;;;3.39;70.08;98440.44;7342302;19;20060;-72
2023/03/31 07:59:34;;;;;;;12.93;5.60;;;;;;;3.37;69.93;98435.31;7344479;19;20010;-73
2023/03/31 08:01:59;;;;;;;8.27;5.43;;;;;;;3.37;69.77;98434.44;7341561;19;20021;-74
2023/03/31 08:04:24;;;;;;;11.68;5.38;;;;;;;3.40;69.87;98421.91;7344926;19;20355;-73
2023/03/31 08:06:50;;;;;;;11.48;5.95;;;;;;;3.45;69.83;98416.38;7340755;19;20060;-72
2023/03/31 08:09:15;;;;;;;9.98;5.47;;;;;;;3.47;69.88;98422.41;7344909;19;20716;-74
2023/03/31 08:11:39;;;;;;;10.10;5.82;;;;;;;3.48;69.75;98413.56;7342355;19;20392;-74
2023/03/31 08:14:04;;;;;;;9.73;5.78;;;;;;;3.53;69.67;98401.78;7341700;19;20063;-73
2023/03/31 08:16:32;;;;;;;9.48;5.93;;;;;;;3.64;69.47;98398.47;7342227;19;20015;-74
2023/03/31 08:18:58;;;;;;;15.05;5.90;;;;;;;3.75;69.44;98401.25;7342165;19;20023;-74
2023/03/31 08:21:23;;;;;;;9.40;5.03;;;;;;;3.83;69.31;98396.38;7340189;19;20461;-73
2023/03/31 08:23:47;;;;;;;11.90;5.40;;;;;;;3.89;69.11;98392.47;7340953;19;20484;-74
2023/03/31 08:26:20;;;;;;;12.90;6.18;;;;;;;3.98;68.86;98390.09;7340666;19;20022;-73
2023/03/31 08:28:47;;;;;;;12.55;5.47;;;;;;;4.04;68.56;98388.00;7341497;19;20014;-76
2023/03/31 08:31:15;;;;;;;10.30;5.07;;;;;;;4.12;68.46;98388.34;7344792;19;20014;-75
2023/03/31 08:33:39;;;;;;;11.20;5.95;;;;;;;4.24;68.11;98382.28;7340609;19;20077;-73
2023/03/31 08:36:07;;;;;;;11.45;5.50;;;;;;;4.35;68.14;98382.41;7342244;19;20052;-73
2023/03/31 08:38:32;;;;;;;12.88;5.85;;;;;;;4.43;67.83;98374.81;7341947;19;20022;-75
2023/03/31 08:40:59;;;;;;;9.40;6.00;;;;;;;4.60;67.56;98365.78;7354124;19;20051;-74
2023/03/31 08:43:31;;;;;;;13.63;7.30;;;;;;;4.69;67.24;98351.97;7344690;19;20021;-73
2023/03/31 08:45:56;;;;;;;9.90;5.30;;;;;;;4.68;67.29;98353.75;7358051;19;20017;-74
2023/03/31 08:48:24;;;;;;;11.40;5.75;;;;;;;4.72;67.04;98354.41;7344562;19;20015;-73
2023/03/31 08:50:54;;;;;;;9.73;5.97;;;;;;;4.72;66.79;98352.59;7343746;19;20037;-72
2023/03/31 08:53:30;;;;;;;11.63;5.07;;;;;;;4.75;66.68;98356.81;7343312;19;20098;-72
2023/03/31 08:55:56;;;;;;;15.90;6.18;;;;;;;4.69;66.61;98354.59;7339606;19;20027;-73
2023/03/31 08:58:21;;;;;;;11.98;5.93;;;;;;;4.65;66.56;98351.31;7350927;19;20103;-72
2023/03/31 09:00:53;;;;;;;12.20;5.20;;;;;;;4.67;66.84;98340.66;7346513;19;20011;-72
2023/03/31 09:03:28;;;;;;;8.40;5.63;;;;;;;4.68;66.92;98348.47;7347897;19;20077;-73
2023/03/31 09:05:53;;;;;;;11.70;4.88;;;;;;;4.66;66.66;98344.25;7348427;19;20014;-72
2023/03/31 09:08:34;;;;;;;19.70;6.38;;;;;;;4.70;66.97;98348.38;7346847;19;20483;-73
2023/03/31 09:11:19;;;;;;;13.25;5.30;;;;;;;4.71;66.77;98343.00;7347166;19;20094;-74
2023/03/31 09:14:02;;;;;;;;;;;;;;;4.82;67.57;98336.97;7347264;19;20023;-75
2023/03/31 09:16:46;;;;;;;13.57;4.93;;;;;;;4.69;66.96;98336.97;7348732;19;19938;-73
2023/03/31 09:19:35;;;;;;;9.88;5.30;;;;;;;4.78;66.70;98335.47;7346485;19;20027;-74
2023/03/31 09:22:01;;;;;;;8.20;5.03;;;;;;;4.71;66.34;98332.44;7344550;19;20009;-73
2023/03/31 09:24:42;;;;;;;11.07;5.63;;;;;;;4.73;66.41;98333.19;7349703;19;20034;-73
2023/03/31 09:27:11;;;;;;;10.65;5.57;;;;;;;4.68;66.36;98324.72;7348073;19;20018;-72
2023/03/31 09:29:51;;;;;;;11.40;4.70;;;;;;;4.72;66.52;98325.38;7345930;19;20018;-74
2023/03/31 09:32:19;;;;;;;12.50;5.65;;;;;;;4.66;66.44;98316.06;7347636;19;20029;-73
2023/03/31 09:34:45;;;;;;;10.77;5.63;;;;;;;4.68;65.99;98311.53;7346082;19;20049;-73
2023/03/31 09:37:11;;;;;;;9.52;5.35;;;;;;;4.71;66.10;98306.03;7345903;19;20014;-72
2023/03/31 09:39:37;;;;;;;15.00;5.22;;;;;;;4.84;65.88;98292.00;7345655;19;20470;-73
2023/03/31 09:42:03;;;;;;;13.15;6.38;;;;;;;5.01;65.87;98286.34;7343263;19;20078;-73
2023/03/31 09:44:36;;;;;;;10.43;5.53;;;;;;;5.19;65.78;98281.59;7347964;19;20038;-73
2023/03/31 09:47:07;;;;;;;9.40;4.95;;;;;;;5.22;65.64;98271.63;7345703;19;20046;-73
2023/03/31 09:49:34;;;;;;;11.20;4.72;;;;;;;5.20;65.63;98264.75;7349308;19;20022;-73
2023/03/31 09:52:06;;;;;;;11.70;5.18;;;;;;;5.12;65.47;98265.31;7346912;19;20038;-73
2023/03/31 09:54:35;;;;;;;9.18;5.15;;;;;;;5.13;65.71;98263.50;7345444;19;20020;-71
2023/03/31 09:57:00;;;;;;;16.92;5.70;;;;;;;5.08;65.40;98264.69;7346171;19;20053;-73
2023/03/31 09:59:33;;;;;;;12.52;5.10;;;;;;;5.18;65.60;98256.97;7346302;19;20023;-72
2023/03/31 10:02:34;;;;;;;11.93;5.60;;;;;;;5.15;65.85;98262.47;7342619;19;20015;-72
2023/03/31 10:05:00;;;;;;;12.60;4.53;;;;;;;5.06;65.59;98258.69;7344625;19;20560;-70
2023/03/31 10:07:25;;;;;;;14.38;5.35;;;;;;;5.01;65.55;98262.59;7346773;19;20473;-73
2023/03/31 10:09:52;;;;;;;7.55;4.75;;;;;;;4.95;65.50;98273.59;7343091;19;20354;-74
2023/03/31 10:12:24;;;;;;;9.95;6.20;;;;;;;4.97;65.55;98271.66;7347313;19;20026;-73
2023/03/31 10:14:52;;;;;;;10.60;4.72;;;;;;;4.92;65.63;98265.88;7346604;19;20015;-74
2023/03/31 10:17:23;;;;;;;11.07;5.43;;;;;;;4.91;65.72;98272.13;7346422;19;20488;-75
2023/03/31 10:19:57;;;;;;;14.75;4.97;;;;;;;4.91;65.67;98261.56;7345229;19;20019;-75
2023/03/31 10:22:22;;;;;;;;;;;;;;;5.03;66.29;98256.25;7347716;19;20354;-74
2023/03/31 10:24:50;;;;;;;12.32;4.68;;;;;;;4.92;65.59;98252.69;7353693;19;19919;-73
2023/03/31 10:27:17;;;;;;;10.32;5.30;;;;;;;4.90;65.78;98251.94;7346083;19;20010;-72
2023/03/31 10:29:42;;;;;;;7.90;5.05;;;;;;;4.84;65.78;98247.09;7349191;19;20450;-73
2023/03/31 10:32:22;;;;;;;11.55;5.07;;;;;;;4.89;65.89;98244.97;7355547;19;20019;-72
2023/03/31 10:34:48;;;;;;;13.60;5.43;;;;;;;4.82;66.15;98230.53;7359205;19;20050;-72
2023/03/31 10:37:19;;;;;;;12.40;5.65;;;;;;;4.83;66.35;98238.34;7353662;19;20019;-72
2023/03/31 10:39:46;;;;;;;13.45;5.25;;;;;;;4.77;66.12;98224.69;7354720;19;20025;-74
2023/03/31 10:42:20;;;;;;;11.35;5.50;;;;;;;4.78;66.34;98221.13;7355952;19;20035;-75
2023/03/31 10:44:45;;;;;;;10.65;5.18;;;;;;;4.74;66.30;98223.13;7360913;19;20018;-75
2023/03/31 10:47:13;;;;;;;12.95;5.57;;;;;;;4.79;66.10;98214.88;7346448;19;20074;-75
2023/03/31 10:49:39;;;;;;;15.68;5.63;;;;;;;4.81;66.02;98216.47;7343351;19;20023;-76
2023/03/31 10:52:15;;;;;;;11.90;5.68;;;;;;;4.85;66.32;98202.13;7345390;19;20353;-75
2023/03/31 10:54:47;;;;;;;12.48;4.95;;;;;;;4.84;66.16;98207.50;7348863;19;20018;-75
2023/03/31 10:57:14;;;;;;;12.32;4.93;;;;;;;4.76;66.23;98197.47;7347357;19;20477;-75
2023/03/31 10:59:45;;;;;;;8.52;4.65;;;;;;;4.71;66.40;98197.81;7354466;19;20342;-73
2023/03/31 11:02:31;;;;;;;9.73;4.82;;;;;;;4.65;66.30;98200.00;7356246;19;20015;-71
2023/03/31 11:05:14;;;;;;;12.88;4.65;;;;;;;4.65;66.38;98210.56;7354338;19;20026;-71
2023/03/31 11:07:43;;;;;;;13.73;4.53;;;;;;;4.56;66.51;98208.59;7343367;19;20018;-74
2023/03/31 11:10:11;;;;;;;20.02;4.70;;;;;;;4.44;66.66;98199.72;7343758;19;20018;-74
2023/03/31 11:12:48;;;;;;;13.57;5.03;;;;;;;4.38;66.91;98198.38;7343852;19;20027;-73
2023/03/31 11:15:22;;;;;;;12.15;5.43;;;;;;;4.37;67.01;98203.75;7342125;19;20029;-75
2023/03/31 11:17:51;;;;;;;8.50;5.22;;;;;;;4.33;67.21;98194.34;7345236;19;20086;-73
2023/03/31 11:20:32;;;;;;;18.15;5.20;;;;;;;4.27;67.30;98200.91;7343270;19;20042;-74
2023/03/31 11:23:25;;;;;;;11.80;4.60;;;;;;;4.27;67.57;98189.50;7346463;19;20037;-73
2023/03/31 11:25:54;;;;;;;9.05;4.35;;;;;;;4.15;67.64;98182.44;7342033;19;20014;-74
2023/03/31 11:28:48;;;;;;;12.95;4.57;;;;;;;4.21;67.90;98180.22;7343256;19;20017;-74
2023/03/31 11:31:46;;;;;;;8.20;3.95;;;;;;;4.17;68.00;98170.84;7340936;19;20011;-71
2023/03/31 11:34:28;;;;;;;12.30;4.40;;;;;;;4.14;67.96;98181.59;7341941;19;20018;-71
2023/03/31 11:37:20;;;;;;;24.88;4.90;;;;;;;4.17;68.23;98167.38;7345236;19;20015;-71
2023/03/31 11:39:59;;;;;;;11.10;4.65;;;;;;;4.16;68.30;98165.69;7340561;19;20061;-72
2023/03/31 11:42:29;;;;;;;10.45;4.43;;;;;;;4.15;68.39;98174.53;7340185;19;20693;-70
2023/03/31 11:45:11;;;;;;;10.95;4.30;;;;;;;4.17;68.49;98162.94;7348412;19;20033;-74
2023/03/31 11:47:43;;;;;;;9.07;4.60;;;;;;;4.18;68.47;98156.69;7345723;19;20478;-72